sensor_id;sensor_type;location;lat;lon;timestamp;P1;durP1;ratioP1;P2;durP2;ratioP2
27670;SDS011;15077;49.704;9.908;2023-07-31T00:00:33;2.30;;;1.23;;
27670;SDS011;15077;49.704;9.908;2023-07-31T00:02:59;2.50;;;1.00;;
27670;SDS011;15077;49.704;9.908;2023-07-31T00:05:25;3.50;;;1.10;;
27670;SDS011;15077;49.704;9.908;2023-07-31T00:07:51;1.55;;;0.88;;
27670;SDS011;15077;49.704;9.908;2023-07-31T00:10:19;1.83;;;0.70;;
27670;SDS011;15077;49.704;9.908;2023-07-31T00:12:45;2.53;;;1.00;;
27670;SDS011;15077;49.704;9.908;2023-07-31T00:15:11;2.55;;;1.27;;
27670;SDS011;15077;49.704;9.908;2023-07-31T00:17:39;1.80;;;0.60;;
27670;SDS011;15077;49.704;9.908;2023-07-31T00:20:13;1.65;;;0.85;;
27670;SDS011;15077;49.704;9.908;2023-07-31T00:22:41;2.70;;;1.30;;
27670;SDS011;15077;49.704;9.908;2023-07-31T00:25:08;1.63;;;0.93;;
27670;SDS011;15077;49.704;9.908;2023-07-31T00:27:34;2.95;;;1.08;;
27670;SDS011;15077;49.704;9.908;2023-07-31T00:30:00;1.60;;;1.17;;
27670;SDS011;15077;49.704;9.908;2023-07-31T00:32:26;2.88;;;1.30;;
27670;SDS011;15077;49.704;9.908;2023-07-31T00:34:52;1.75;;;0.95;;
27670;SDS011;15077;49.704;9.908;2023-07-31T00:37:19;1.80;;;0.77;;
27670;SDS011;15077;49.704;9.908;2023-07-31T00:39:46;2.58;;;1.27;;
27670;SDS011;15077;49.704;9.908;2023-07-31T00:42:12;2.35;;;0.90;;
27670;SDS011;15077;49.704;9.908;2023-07-31T00:44:37;3.08;;;1.00;;
27670;SDS011;15077;49.704;9.908;2023-07-31T00:47:03;2.20;;;1.02;;
27670;SDS011;15077;49.704;9.908;2023-07-31T00:49:29;3.97;;;1.00;;
27670;SDS011;15077;49.704;9.908;2023-07-31T00:51:55;3.45;;;1.30;;
27670;SDS011;15077;49.704;9.908;2023-07-31T00:54:22;2.03;;;0.90;;
27670;SDS011;15077;49.704;9.908;2023-07-31T00:56:48;2.58;;;1.20;;
27670;SDS011;15077;49.704;9.908;2023-07-31T00:59:18;6.43;;;1.30;;
27670;SDS011;15077;49.704;9.908;2023-07-31T01:01:44;2.10;;;1.05;;
27670;SDS011;15077;49.704;9.908;2023-07-31T01:04:13;1.52;;;0.73;;
27670;SDS011;15077;49.704;9.908;2023-07-31T01:12:01;2.88;;;1.35;;
27670;SDS011;15077;49.704;9.908;2023-07-31T01:14:29;3.80;;;1.55;;
27670;SDS011;15077;49.704;9.908;2023-07-31T01:16:55;2.90;;;1.33;;
27670;SDS011;15077;49.704;9.908;2023-07-31T01:19:23;2.65;;;1.05;;
27670;SDS011;15077;49.704;9.908;2023-07-31T01:21:58;4.65;;;1.73;;
27670;SDS011;15077;49.704;9.908;2023-07-31T01:27:38;6.05;;;1.13;;
27670;SDS011;15077;49.704;9.908;2023-07-31T01:30:37;3.40;;;1.67;;
27670;SDS011;15077;49.704;9.908;2023-07-31T01:33:14;6.00;;;1.90;;
27670;SDS011;15077;49.704;9.908;2023-07-31T01:35:42;2.42;;;1.20;;
27670;SDS011;15077;49.704;9.908;2023-07-31T01:38:11;4.05;;;1.38;;
27670;SDS011;15077;49.704;9.908;2023-07-31T01:40:37;3.22;;;1.40;;
27670;SDS011;15077;49.704;9.908;2023-07-31T01:43:06;3.08;;;1.00;;
27670;SDS011;15077;49.704;9.908;2023-07-31T01:45:35;3.47;;;1.33;;
27670;SDS011;15077;49.704;9.908;2023-07-31T01:48:01;5.00;;;1.27;;
27670;SDS011;15077;49.704;9.908;2023-07-31T01:50:27;3.88;;;1.30;;
27670;SDS011;15077;49.704;9.908;2023-07-31T01:52:53;1.63;;;1.10;;
27670;SDS011;15077;49.704;9.908;2023-07-31T01:55:19;3.45;;;1.35;;
27670;SDS011;15077;49.704;9.908;2023-07-31T01:57:44;2.20;;;1.17;;
27670;SDS011;15077;49.704;9.908;2023-07-31T02:00:10;3.90;;;1.30;;
27670;SDS011;15077;49.704;9.908;2023-07-31T02:02:36;2.97;;;1.23;;
27670;SDS011;15077;49.704;9.908;2023-07-31T02:05:08;4.80;;;1.42;;
27670;SDS011;15077;49.704;9.908;2023-07-31T02:07:34;3.53;;;1.17;;
27670;SDS011;15077;49.704;9.908;2023-07-31T02:10:00;2.45;;;0.95;;
27670;SDS011;15077;49.704;9.908;2023-07-31T02:12:26;3.05;;;1.42;;
27670;SDS011;15077;49.704;9.908;2023-07-31T02:14:52;2.50;;;1.23;;
27670;SDS011;15077;49.704;9.908;2023-07-31T02:17:18;4.13;;;1.75;;
27670;SDS011;15077;49.704;9.908;2023-07-31T02:19:44;4.40;;;1.90;;
27670;SDS011;15077;49.704;9.908;2023-07-31T02:22:10;3.65;;;1.20;;
27670;SDS011;15077;49.704;9.908;2023-07-31T02:24:36;2.45;;;1.30;;
27670;SDS011;15077;49.704;9.908;2023-07-31T02:27:02;2.72;;;1.13;;
27670;SDS011;15077;49.704;9.908;2023-07-31T02:29:28;2.20;;;1.23;;
27670;SDS011;15077;49.704;9.908;2023-07-31T02:31:54;3.88;;;1.27;;
27670;SDS011;15077;49.704;9.908;2023-07-31T02:34:19;2.90;;;1.02;;
27670;SDS011;15077;49.704;9.908;2023-07-31T02:36:45;2.30;;;0.98;;
27670;SDS011;15077;49.704;9.908;2023-07-31T02:39:11;2.60;;;1.08;;
27670;SDS011;15077;49.704;9.908;2023-07-31T02:41:37;2.67;;;1.30;;
27670;SDS011;15077;49.704;9.908;2023-07-31T02:44:03;3.90;;;1.23;;
27670;SDS011;15077;49.704;9.908;2023-07-31T02:46:29;3.25;;;1.05;;
27670;SDS011;15077;49.704;9.908;2023-07-31T02:48:55;3.60;;;1.25;;
27670;SDS011;15077;49.704;9.908;2023-07-31T02:51:21;3.05;;;1.23;;
27670;SDS011;15077;49.704;9.908;2023-07-31T02:53:47;3.45;;;0.90;;
27670;SDS011;15077;49.704;9.908;2023-07-31T02:56:13;2.20;;;1.10;;
27670;SDS011;15077;49.704;9.908;2023-07-31T02:58:39;4.10;;;1.20;;
27670;SDS011;15077;49.704;9.908;2023-07-31T03:01:05;2.28;;;0.95;;
27670;SDS011;15077;49.704;9.908;2023-07-31T03:03:30;2.60;;;1.23;;
27670;SDS011;15077;49.704;9.908;2023-07-31T03:05:56;1.85;;;1.00;;
27670;SDS011;15077;49.704;9.908;2023-07-31T03:08:22;3.85;;;1.15;;
27670;SDS011;15077;49.704;9.908;2023-07-31T03:10:48;3.30;;;1.25;;
27670;SDS011;15077;49.704;9.908;2023-07-31T03:13:14;4.15;;;1.65;;
27670;SDS011;15077;49.704;9.908;2023-07-31T03:15:41;1.77;;;0.90;;
27670;SDS011;15077;49.704;9.908;2023-07-31T03:18:08;3.22;;;1.13;;
27670;SDS011;15077;49.704;9.908;2023-07-31T03:20:34;2.15;;;1.20;;
27670;SDS011;15077;49.704;9.908;2023-07-31T03:23:01;2.78;;;1.38;;
27670;SDS011;15077;49.704;9.908;2023-07-31T03:25:27;4.22;;;1.58;;
27670;SDS011;15077;49.704;9.908;2023-07-31T03:27:53;1.88;;;1.33;;
27670;SDS011;15077;49.704;9.908;2023-07-31T03:30:18;3.78;;;1.30;;
27670;SDS011;15077;49.704;9.908;2023-07-31T03:32:44;3.95;;;1.23;;
27670;SDS011;15077;49.704;9.908;2023-07-31T03:35:10;3.58;;;1.42;;
27670;SDS011;15077;49.704;9.908;2023-07-31T03:37:35;4.15;;;1.60;;
27670;SDS011;15077;49.704;9.908;2023-07-31T03:40:03;2.67;;;1.42;;
27670;SDS011;15077;49.704;9.908;2023-07-31T03:42:29;3.85;;;1.40;;
27670;SDS011;15077;49.704;9.908;2023-07-31T03:44:55;4.15;;;1.42;;
27670;SDS011;15077;49.704;9.908;2023-07-31T03:47:21;4.70;;;1.80;;
27670;SDS011;15077;49.704;9.908;2023-07-31T03:49:47;4.07;;;1.58;;
27670;SDS011;15077;49.704;9.908;2023-07-31T03:52:13;3.67;;;1.40;;
27670;SDS011;15077;49.704;9.908;2023-07-31T03:54:41;2.95;;;1.48;;
27670;SDS011;15077;49.704;9.908;2023-07-31T03:57:09;3.92;;;1.58;;
27670;SDS011;15077;49.704;9.908;2023-07-31T03:59:36;3.17;;;1.40;;
27670;SDS011;15077;49.704;9.908;2023-07-31T04:02:04;2.47;;;1.42;;
27670;SDS011;15077;49.704;9.908;2023-07-31T04:04:30;3.13;;;1.15;;
27670;SDS011;15077;49.704;9.908;2023-07-31T04:06:56;4.55;;;1.40;;
27670;SDS011;15077;49.704;9.908;2023-07-31T04:09:22;4.90;;;1.92;;
27670;SDS011;15077;49.704;9.908;2023-07-31T04:11:47;4.75;;;2.00;;
27670;SDS011;15077;49.704;9.908;2023-07-31T04:14:13;3.05;;;1.50;;
27670;SDS011;15077;49.704;9.908;2023-07-31T04:16:39;3.33;;;1.77;;
27670;SDS011;15077;49.704;9.908;2023-07-31T04:19:05;2.67;;;1.40;;
27670;SDS011;15077;49.704;9.908;2023-07-31T04:21:31;6.28;;;1.70;;
27670;SDS011;15077;49.704;9.908;2023-07-31T04:23:57;3.58;;;1.50;;
27670;SDS011;15077;49.704;9.908;2023-07-31T04:26:23;3.78;;;1.10;;
27670;SDS011;15077;49.704;9.908;2023-07-31T04:28:49;2.45;;;1.50;;
27670;SDS011;15077;49.704;9.908;2023-07-31T04:31:14;3.58;;;1.55;;
27670;SDS011;15077;49.704;9.908;2023-07-31T04:33:40;3.53;;;1.92;;
27670;SDS011;15077;49.704;9.908;2023-07-31T04:36:06;3.33;;;1.45;;
27670;SDS011;15077;49.704;9.908;2023-07-31T04:38:32;4.38;;;1.45;;
27670;SDS011;15077;49.704;9.908;2023-07-31T04:40:58;3.80;;;1.30;;
27670;SDS011;15077;49.704;9.908;2023-07-31T04:43:23;2.70;;;1.27;;
27670;SDS011;15077;49.704;9.908;2023-07-31T04:45:49;4.30;;;1.70;;
27670;SDS011;15077;49.704;9.908;2023-07-31T04:48:15;3.90;;;1.55;;
27670;SDS011;15077;49.704;9.908;2023-07-31T04:50:41;3.60;;;1.30;;
27670;SDS011;15077;49.704;9.908;2023-07-31T04:53:07;5.15;;;1.73;;
27670;SDS011;15077;49.704;9.908;2023-07-31T04:55:33;3.42;;;1.52;;
27670;SDS011;15077;49.704;9.908;2023-07-31T04:57:59;4.90;;;2.30;;
27670;SDS011;15077;49.704;9.908;2023-07-31T05:00:25;4.55;;;1.50;;
27670;SDS011;15077;49.704;9.908;2023-07-31T05:02:50;3.08;;;1.70;;
27670;SDS011;15077;49.704;9.908;2023-07-31T05:05:16;3.42;;;1.52;;
27670;SDS011;15077;49.704;9.908;2023-07-31T05:07:42;3.60;;;1.80;;
27670;SDS011;15077;49.704;9.908;2023-07-31T05:10:07;4.35;;;1.63;;
27670;SDS011;15077;49.704;9.908;2023-07-31T05:12:34;4.72;;;1.40;;
27670;SDS011;15077;49.704;9.908;2023-07-31T05:14:59;2.80;;;1.35;;
27670;SDS011;15077;49.704;9.908;2023-07-31T05:17:25;4.68;;;2.15;;
27670;SDS011;15077;49.704;9.908;2023-07-31T05:19:51;2.53;;;1.35;;
27670;SDS011;15077;49.704;9.908;2023-07-31T05:22:16;3.92;;;1.85;;
27670;SDS011;15077;49.704;9.908;2023-07-31T05:24:42;3.17;;;1.20;;
27670;SDS011;15077;49.704;9.908;2023-07-31T05:27:08;3.90;;;1.33;;
27670;SDS011;15077;49.704;9.908;2023-07-31T05:29:34;3.97;;;1.60;;
27670;SDS011;15077;49.704;9.908;2023-07-31T05:32:00;2.85;;;1.35;;
27670;SDS011;15077;49.704;9.908;2023-07-31T05:34:26;3.72;;;1.38;;
27670;SDS011;15077;49.704;9.908;2023-07-31T05:36:52;4.18;;;1.90;;
27670;SDS011;15077;49.704;9.908;2023-07-31T05:39:18;3.28;;;1.40;;
27670;SDS011;15077;49.704;9.908;2023-07-31T05:41:44;3.70;;;1.60;;
27670;SDS011;15077;49.704;9.908;2023-07-31T05:44:10;4.32;;;1.80;;
27670;SDS011;15077;49.704;9.908;2023-07-31T05:46:36;4.25;;;1.83;;
27670;SDS011;15077;49.704;9.908;2023-07-31T05:49:02;4.45;;;2.20;;
27670;SDS011;15077;49.704;9.908;2023-07-31T05:51:28;2.70;;;1.58;;
27670;SDS011;15077;49.704;9.908;2023-07-31T05:53:53;3.75;;;1.65;;
27670;SDS011;15077;49.704;9.908;2023-07-31T05:56:19;4.03;;;1.63;;
27670;SDS011;15077;49.704;9.908;2023-07-31T05:58:45;3.17;;;1.70;;
27670;SDS011;15077;49.704;9.908;2023-07-31T06:01:10;4.05;;;1.50;;
27670;SDS011;15077;49.704;9.908;2023-07-31T06:03:36;2.65;;;1.40;;
27670;SDS011;15077;49.704;9.908;2023-07-31T06:06:02;6.88;;;2.05;;
27670;SDS011;15077;49.704;9.908;2023-07-31T06:08:28;3.45;;;1.65;;
27670;SDS011;15077;49.704;9.908;2023-07-31T06:10:53;2.97;;;1.63;;
27670;SDS011;15077;49.704;9.908;2023-07-31T06:13:19;3.60;;;1.70;;
27670;SDS011;15077;49.704;9.908;2023-07-31T06:15:45;3.95;;;1.80;;
27670;SDS011;15077;49.704;9.908;2023-07-31T06:18:11;3.88;;;1.90;;
27670;SDS011;15077;49.704;9.908;2023-07-31T06:20:37;3.42;;;1.45;;
27670;SDS011;15077;49.704;9.908;2023-07-31T06:23:05;4.43;;;1.90;;
27670;SDS011;15077;49.704;9.908;2023-07-31T06:25:31;3.83;;;2.17;;
27670;SDS011;15077;49.704;9.908;2023-07-31T06:27:57;5.22;;;2.38;;
27670;SDS011;15077;49.704;9.908;2023-07-31T06:30:22;5.10;;;1.88;;
27670;SDS011;15077;49.704;9.908;2023-07-31T06:32:48;4.25;;;1.67;;
27670;SDS011;15077;49.704;9.908;2023-07-31T06:35:14;3.35;;;1.60;;
27670;SDS011;15077;49.704;9.908;2023-07-31T06:37:40;5.03;;;2.40;;
27670;SDS011;15077;49.704;9.908;2023-07-31T06:40:08;6.00;;;2.13;;
27670;SDS011;15077;49.704;9.908;2023-07-31T06:42:35;4.45;;;1.38;;
27670;SDS011;15077;49.704;9.908;2023-07-31T06:45:01;3.92;;;1.45;;
27670;SDS011;15077;49.704;9.908;2023-07-31T06:47:27;3.55;;;1.80;;
27670;SDS011;15077;49.704;9.908;2023-07-31T06:49:53;6.65;;;1.95;;
27670;SDS011;15077;49.704;9.908;2023-07-31T06:52:21;5.10;;;2.40;;
27670;SDS011;15077;49.704;9.908;2023-07-31T06:54:59;5.72;;;2.20;;
27670;SDS011;15077;49.704;9.908;2023-07-31T06:57:43;4.28;;;1.60;;
27670;SDS011;15077;49.704;9.908;2023-07-31T07:00:08;4.63;;;1.92;;
27670;SDS011;15077;49.704;9.908;2023-07-31T07:02:35;6.05;;;2.40;;
27670;SDS011;15077;49.704;9.908;2023-07-31T07:05:00;4.28;;;1.63;;
27670;SDS011;15077;49.704;9.908;2023-07-31T07:07:27;2.78;;;1.92;;
27670;SDS011;15077;49.704;9.908;2023-07-31T07:09:53;4.80;;;1.58;;
27670;SDS011;15077;49.704;9.908;2023-07-31T07:12:19;3.38;;;1.60;;
27670;SDS011;15077;49.704;9.908;2023-07-31T07:14:44;4.80;;;1.85;;
27670;SDS011;15077;49.704;9.908;2023-07-31T07:17:13;5.38;;;1.40;;
27670;SDS011;15077;49.704;9.908;2023-07-31T07:19:42;3.85;;;1.80;;
27670;SDS011;15077;49.704;9.908;2023-07-31T07:22:07;3.70;;;1.65;;
27670;SDS011;15077;49.704;9.908;2023-07-31T07:24:33;4.47;;;1.80;;
27670;SDS011;15077;49.704;9.908;2023-07-31T07:26:59;4.47;;;1.80;;
27670;SDS011;15077;49.704;9.908;2023-07-31T07:29:25;2.42;;;1.50;;
27670;SDS011;15077;49.704;9.908;2023-07-31T07:31:50;3.33;;;1.80;;
27670;SDS011;15077;49.704;9.908;2023-07-31T07:34:16;3.30;;;1.90;;
27670;SDS011;15077;49.704;9.908;2023-07-31T07:36:42;5.70;;;2.17;;
27670;SDS011;15077;49.704;9.908;2023-07-31T07:39:09;5.47;;;2.40;;
27670;SDS011;15077;49.704;9.908;2023-07-31T07:41:36;5.15;;;1.98;;
27670;SDS011;15077;49.704;9.908;2023-07-31T07:44:02;4.88;;;2.28;;
27670;SDS011;15077;49.704;9.908;2023-07-31T07:46:27;3.97;;;1.88;;
27670;SDS011;15077;49.704;9.908;2023-07-31T07:48:53;5.55;;;2.13;;
27670;SDS011;15077;49.704;9.908;2023-07-31T07:51:19;4.75;;;2.00;;
27670;SDS011;15077;49.704;9.908;2023-07-31T07:53:45;3.58;;;2.30;;
27670;SDS011;15077;49.704;9.908;2023-07-31T07:56:10;4.30;;;1.80;;
27670;SDS011;15077;49.704;9.908;2023-07-31T07:58:36;4.63;;;2.08;;
27670;SDS011;15077;49.704;9.908;2023-07-31T08:01:02;4.97;;;2.10;;
27670;SDS011;15077;49.704;9.908;2023-07-31T08:03:27;3.97;;;1.95;;
27670;SDS011;15077;49.704;9.908;2023-07-31T08:05:57;3.50;;;1.77;;
27670;SDS011;15077;49.704;9.908;2023-07-31T08:08:27;2.60;;;1.70;;
27670;SDS011;15077;49.704;9.908;2023-07-31T08:10:53;4.60;;;2.08;;
27670;SDS011;15077;49.704;9.908;2023-07-31T08:13:19;3.08;;;1.88;;
27670;SDS011;15077;49.704;9.908;2023-07-31T08:15:45;2.55;;;1.67;;
27670;SDS011;15077;49.704;9.908;2023-07-31T08:18:11;4.63;;;1.95;;
27670;SDS011;15077;49.704;9.908;2023-07-31T08:20:37;3.92;;;1.67;;
27670;SDS011;15077;49.704;9.908;2023-07-31T08:23:03;4.80;;;2.00;;
27670;SDS011;15077;49.704;9.908;2023-07-31T08:25:29;3.63;;;1.90;;
27670;SDS011;15077;49.704;9.908;2023-07-31T08:27:55;4.38;;;1.70;;
27670;SDS011;15077;49.704;9.908;2023-07-31T08:30:21;5.53;;;2.15;;
27670;SDS011;15077;49.704;9.908;2023-07-31T08:32:47;6.63;;;2.20;;
27670;SDS011;15077;49.704;9.908;2023-07-31T08:35:14;3.58;;;1.63;;
27670;SDS011;15077;49.704;9.908;2023-07-31T08:37:40;6.13;;;1.77;;
27670;SDS011;15077;49.704;9.908;2023-07-31T08:40:06;5.65;;;2.03;;
27670;SDS011;15077;49.704;9.908;2023-07-31T08:42:32;3.40;;;1.83;;
27670;SDS011;15077;49.704;9.908;2023-07-31T08:44:59;4.20;;;1.95;;
27670;SDS011;15077;49.704;9.908;2023-07-31T08:47:26;6.07;;;2.08;;
27670;SDS011;15077;49.704;9.908;2023-07-31T08:49:53;4.93;;;1.90;;
27670;SDS011;15077;49.704;9.908;2023-07-31T08:52:20;4.05;;;1.77;;
27670;SDS011;15077;49.704;9.908;2023-07-31T08:54:46;3.65;;;2.05;;
27670;SDS011;15077;49.704;9.908;2023-07-31T08:57:12;5.55;;;1.90;;
27670;SDS011;15077;49.704;9.908;2023-07-31T08:59:39;4.45;;;1.55;;
27670;SDS011;15077;49.704;9.908;2023-07-31T09:02:08;3.78;;;1.85;;
27670;SDS011;15077;49.704;9.908;2023-07-31T09:04:34;5.22;;;2.00;;
27670;SDS011;15077;49.704;9.908;2023-07-31T09:07:01;4.45;;;1.75;;
27670;SDS011;15077;49.704;9.908;2023-07-31T09:09:30;4.93;;;2.22;;
27670;SDS011;15077;49.704;9.908;2023-07-31T09:11:57;5.28;;;2.15;;
27670;SDS011;15077;49.704;9.908;2023-07-31T09:14:26;5.78;;;2.10;;
27670;SDS011;15077;49.704;9.908;2023-07-31T09:16:56;4.43;;;2.53;;
27670;SDS011;15077;49.704;9.908;2023-07-31T09:19:34;5.43;;;2.65;;
27670;SDS011;15077;49.704;9.908;2023-07-31T09:22:05;4.40;;;2.00;;
27670;SDS011;15077;49.704;9.908;2023-07-31T09:24:32;3.15;;;1.67;;
27670;SDS011;15077;49.704;9.908;2023-07-31T09:27:00;3.28;;;1.95;;
27670;SDS011;15077;49.704;9.908;2023-07-31T09:29:27;4.03;;;1.88;;
27670;SDS011;15077;49.704;9.908;2023-07-31T09:31:54;3.50;;;2.00;;
27670;SDS011;15077;49.704;9.908;2023-07-31T09:34:27;5.53;;;2.20;;
27670;SDS011;15077;49.704;9.908;2023-07-31T09:37:04;7.25;;;2.20;;
27670;SDS011;15077;49.704;9.908;2023-07-31T09:39:30;2.83;;;1.90;;
27670;SDS011;15077;49.704;9.908;2023-07-31T09:41:56;5.85;;;1.95;;
27670;SDS011;15077;49.704;9.908;2023-07-31T09:44:36;3.90;;;2.25;;
27670;SDS011;15077;49.704;9.908;2023-07-31T09:47:06;3.95;;;2.10;;
27670;SDS011;15077;49.704;9.908;2023-07-31T09:49:46;3.92;;;1.55;;
27670;SDS011;15077;49.704;9.908;2023-07-31T09:52:12;4.70;;;1.85;;
27670;SDS011;15077;49.704;9.908;2023-07-31T09:54:40;4.13;;;1.90;;
27670;SDS011;15077;49.704;9.908;2023-07-31T09:57:06;5.38;;;2.03;;
27670;SDS011;15077;49.704;9.908;2023-07-31T09:59:33;3.45;;;2.08;;
27670;SDS011;15077;49.704;9.908;2023-07-31T10:01:59;3.40;;;2.08;;
27670;SDS011;15077;49.704;9.908;2023-07-31T10:04:26;4.57;;;2.03;;
27670;SDS011;15077;49.704;9.908;2023-07-31T10:06:53;3.25;;;1.75;;
27670;SDS011;15077;49.704;9.908;2023-07-31T10:09:20;3.40;;;1.60;;
27670;SDS011;15077;49.704;9.908;2023-07-31T10:11:51;2.63;;;1.55;;
27670;SDS011;15077;49.704;9.908;2023-07-31T10:14:25;4.85;;;1.75;;
27670;SDS011;15077;49.704;9.908;2023-07-31T10:16:53;4.25;;;1.92;;
27670;SDS011;15077;49.704;9.908;2023-07-31T10:19:20;4.25;;;2.30;;
27670;SDS011;15077;49.704;9.908;2023-07-31T10:21:48;3.45;;;1.65;;
27670;SDS011;15077;49.704;9.908;2023-07-31T10:24:14;4.40;;;1.80;;
27670;SDS011;15077;49.704;9.908;2023-07-31T10:26:41;3.45;;;2.28;;
27670;SDS011;15077;49.704;9.908;2023-07-31T10:29:11;4.95;;;2.33;;
27670;SDS011;15077;49.704;9.908;2023-07-31T10:31:37;4.60;;;1.98;;
27670;SDS011;15077;49.704;9.908;2023-07-31T10:34:05;3.58;;;1.60;;
27670;SDS011;15077;49.704;9.908;2023-07-31T10:36:31;4.40;;;1.90;;
27670;SDS011;15077;49.704;9.908;2023-07-31T10:38:58;3.20;;;2.05;;
27670;SDS011;15077;49.704;9.908;2023-07-31T10:41:30;4.38;;;2.28;;
27670;SDS011;15077;49.704;9.908;2023-07-31T10:43:57;4.82;;;2.08;;
27670;SDS011;15077;49.704;9.908;2023-07-31T10:46:29;3.55;;;1.80;;
27670;SDS011;15077;49.704;9.908;2023-07-31T10:48:59;3.30;;;1.75;;
27670;SDS011;15077;49.704;9.908;2023-07-31T10:51:33;4.40;;;1.80;;
27670;SDS011;15077;49.704;9.908;2023-07-31T10:54:10;4.13;;;1.88;;
27670;SDS011;15077;49.704;9.908;2023-07-31T10:56:39;6.30;;;2.50;;
27670;SDS011;15077;49.704;9.908;2023-07-31T10:59:05;3.65;;;2.17;;
27670;SDS011;15077;49.704;9.908;2023-07-31T11:01:49;5.55;;;2.00;;
27670;SDS011;15077;49.704;9.908;2023-07-31T11:04:22;6.85;;;2.50;;
27670;SDS011;15077;49.704;9.908;2023-07-31T11:06:59;4.15;;;2.50;;
27670;SDS011;15077;49.704;9.908;2023-07-31T11:09:31;6.18;;;2.35;;
27670;SDS011;15077;49.704;9.908;2023-07-31T11:12:01;4.72;;;1.92;;
27670;SDS011;15077;49.704;9.908;2023-07-31T11:14:27;4.80;;;2.05;;
27670;SDS011;15077;49.704;9.908;2023-07-31T11:16:53;3.17;;;2.08;;
27670;SDS011;15077;49.704;9.908;2023-07-31T11:19:22;3.08;;;1.83;;
27670;SDS011;15077;49.704;9.908;2023-07-31T11:21:50;3.88;;;1.85;;
27670;SDS011;15077;49.704;9.908;2023-07-31T11:24:19;4.43;;;2.40;;
27670;SDS011;15077;49.704;9.908;2023-07-31T11:26:52;7.72;;;2.85;;
27670;SDS011;15077;49.704;9.908;2023-07-31T11:31:45;4.75;;;2.08;;
27670;SDS011;15077;49.704;9.908;2023-07-31T11:34:13;4.07;;;1.85;;
27670;SDS011;15077;49.704;9.908;2023-07-31T11:36:47;4.47;;;1.65;;
27670;SDS011;15077;49.704;9.908;2023-07-31T11:39:20;4.63;;;2.05;;
27670;SDS011;15077;49.704;9.908;2023-07-31T11:41:47;4.38;;;2.25;;
27670;SDS011;15077;49.704;9.908;2023-07-31T11:44:12;3.97;;;1.88;;
27670;SDS011;15077;49.704;9.908;2023-07-31T11:46:38;2.90;;;1.88;;
27670;SDS011;15077;49.704;9.908;2023-07-31T11:49:04;5.47;;;2.70;;
27670;SDS011;15077;49.704;9.908;2023-07-31T11:51:31;5.75;;;2.58;;
27670;SDS011;15077;49.704;9.908;2023-07-31T11:53:57;5.82;;;3.10;;
27670;SDS011;15077;49.704;9.908;2023-07-31T11:56:26;5.70;;;2.88;;
27670;SDS011;15077;49.704;9.908;2023-07-31T11:58:53;6.40;;;2.53;;
27670;SDS011;15077;49.704;9.908;2023-07-31T12:01:23;6.72;;;2.38;;
27670;SDS011;15077;49.704;9.908;2023-07-31T12:03:52;3.95;;;2.35;;
27670;SDS011;15077;49.704;9.908;2023-07-31T12:06:19;3.33;;;2.25;;
27670;SDS011;15077;49.704;9.908;2023-07-31T12:08:46;5.10;;;2.58;;
27670;SDS011;15077;49.704;9.908;2023-07-31T12:11:12;3.10;;;2.08;;
27670;SDS011;15077;49.704;9.908;2023-07-31T12:13:42;4.75;;;2.45;;
27670;SDS011;15077;49.704;9.908;2023-07-31T12:16:08;4.80;;;2.25;;
27670;SDS011;15077;49.704;9.908;2023-07-31T12:18:35;4.65;;;2.15;;
27670;SDS011;15077;49.704;9.908;2023-07-31T12:21:04;4.07;;;1.98;;
27670;SDS011;15077;49.704;9.908;2023-07-31T12:23:33;9.25;;;3.30;;
27670;SDS011;15077;49.704;9.908;2023-07-31T12:26:05;4.53;;;1.98;;
27670;SDS011;15077;49.704;9.908;2023-07-31T12:28:34;4.50;;;2.30;;
27670;SDS011;15077;49.704;9.908;2023-07-31T12:31:12;5.47;;;2.15;;
27670;SDS011;15077;49.704;9.908;2023-07-31T12:33:44;4.67;;;2.60;;
27670;SDS011;15077;49.704;9.908;2023-07-31T12:36:22;4.68;;;3.08;;
27670;SDS011;15077;49.704;9.908;2023-07-31T12:38:50;3.92;;;2.22;;
27670;SDS011;15077;49.704;9.908;2023-07-31T12:41:17;3.78;;;2.70;;
27670;SDS011;15077;49.704;9.908;2023-07-31T12:43:44;5.10;;;2.33;;
27670;SDS011;15077;49.704;9.908;2023-07-31T12:46:11;4.85;;;2.85;;
27670;SDS011;15077;49.704;9.908;2023-07-31T12:48:37;5.55;;;2.90;;
27670;SDS011;15077;49.704;9.908;2023-07-31T12:51:04;3.28;;;2.03;;
27670;SDS011;15077;49.704;9.908;2023-07-31T12:53:30;4.03;;;2.15;;
27670;SDS011;15077;49.704;9.908;2023-07-31T12:55:56;5.53;;;2.40;;
27670;SDS011;15077;49.704;9.908;2023-07-31T12:58:22;4.47;;;2.15;;
27670;SDS011;15077;49.704;9.908;2023-07-31T13:00:48;4.00;;;2.33;;
27670;SDS011;15077;49.704;9.908;2023-07-31T13:03:14;3.75;;;2.40;;
27670;SDS011;15077;49.704;9.908;2023-07-31T13:05:39;4.70;;;2.30;;
27670;SDS011;15077;49.704;9.908;2023-07-31T13:08:05;4.40;;;2.28;;
27670;SDS011;15077;49.704;9.908;2023-07-31T13:10:31;4.90;;;2.60;;
27670;SDS011;15077;49.704;9.908;2023-07-31T13:12:57;5.60;;;2.45;;
27670;SDS011;15077;49.704;9.908;2023-07-31T13:15:23;5.57;;;3.35;;
27670;SDS011;15077;49.704;9.908;2023-07-31T13:17:48;6.32;;;2.50;;
27670;SDS011;15077;49.704;9.908;2023-07-31T13:20:14;4.75;;;2.28;;
27670;SDS011;15077;49.704;9.908;2023-07-31T13:22:40;3.67;;;2.47;;
27670;SDS011;15077;49.704;9.908;2023-07-31T13:25:06;5.45;;;2.45;;
27670;SDS011;15077;49.704;9.908;2023-07-31T13:27:32;4.13;;;2.78;;
27670;SDS011;15077;49.704;9.908;2023-07-31T13:29:59;7.32;;;2.78;;
27670;SDS011;15077;49.704;9.908;2023-07-31T13:32:24;6.75;;;2.40;;
27670;SDS011;15077;49.704;9.908;2023-07-31T13:34:51;4.38;;;2.40;;
27670;SDS011;15077;49.704;9.908;2023-07-31T13:37:17;5.43;;;2.25;;
27670;SDS011;15077;49.704;9.908;2023-07-31T13:40:02;3.67;;;2.10;;
27670;SDS011;15077;49.704;9.908;2023-07-31T13:42:32;4.70;;;2.40;;
27670;SDS011;15077;49.704;9.908;2023-07-31T13:44:58;4.65;;;2.50;;
27670;SDS011;15077;49.704;9.908;2023-07-31T13:47:25;4.05;;;2.03;;
27670;SDS011;15077;49.704;9.908;2023-07-31T13:49:51;4.65;;;2.40;;
27670;SDS011;15077;49.704;9.908;2023-07-31T13:52:41;5.25;;;2.70;;
27670;SDS011;15077;49.704;9.908;2023-07-31T13:55:07;4.57;;;2.35;;
27670;SDS011;15077;49.704;9.908;2023-07-31T13:57:33;4.63;;;2.13;;
27670;SDS011;15077;49.704;9.908;2023-07-31T13:59:59;3.88;;;2.15;;
27670;SDS011;15077;49.704;9.908;2023-07-31T14:02:25;3.75;;;2.72;;
27670;SDS011;15077;49.704;9.908;2023-07-31T14:04:51;4.60;;;2.47;;
27670;SDS011;15077;49.704;9.908;2023-07-31T14:07:17;3.95;;;2.05;;
27670;SDS011;15077;49.704;9.908;2023-07-31T14:09:42;4.15;;;2.00;;
27670;SDS011;15077;49.704;9.908;2023-07-31T14:12:08;3.97;;;2.03;;
27670;SDS011;15077;49.704;9.908;2023-07-31T14:14:34;5.70;;;2.60;;
27670;SDS011;15077;49.704;9.908;2023-07-31T14:17:00;5.57;;;2.42;;
27670;SDS011;15077;49.704;9.908;2023-07-31T14:19:26;5.45;;;2.67;;
27670;SDS011;15077;49.704;9.908;2023-07-31T14:21:52;5.22;;;2.17;;
27670;SDS011;15077;49.704;9.908;2023-07-31T14:24:17;4.88;;;2.15;;
27670;SDS011;15077;49.704;9.908;2023-07-31T14:26:43;7.35;;;2.47;;
27670;SDS011;15077;49.704;9.908;2023-07-31T14:29:09;4.20;;;2.38;;
27670;SDS011;15077;49.704;9.908;2023-07-31T14:31:35;3.22;;;1.90;;
27670;SDS011;15077;49.704;9.908;2023-07-31T14:34:01;3.78;;;2.15;;
27670;SDS011;15077;49.704;9.908;2023-07-31T14:36:27;4.68;;;2.25;;
27670;SDS011;15077;49.704;9.908;2023-07-31T14:38:52;3.72;;;1.83;;
27670;SDS011;15077;49.704;9.908;2023-07-31T14:41:18;4.10;;;1.90;;
27670;SDS011;15077;49.704;9.908;2023-07-31T14:43:44;5.97;;;2.67;;
27670;SDS011;15077;49.704;9.908;2023-07-31T14:46:09;4.20;;;2.20;;
27670;SDS011;15077;49.704;9.908;2023-07-31T14:48:35;6.60;;;2.40;;
27670;SDS011;15077;49.704;9.908;2023-07-31T14:51:01;4.30;;;2.00;;
27670;SDS011;15077;49.704;9.908;2023-07-31T14:53:27;4.53;;;1.90;;
27670;SDS011;15077;49.704;9.908;2023-07-31T14:55:52;4.60;;;2.60;;
27670;SDS011;15077;49.704;9.908;2023-07-31T14:58:18;3.72;;;2.03;;